createdAt,value
2023-03-07T00:00:07.322Z,94328.3
2023-03-07T00:01:09.241Z,94328.9
2023-03-07T00:02:11.457Z,94328.6
2023-03-07T00:03:13.969Z,94329.5
2023-03-07T00:04:16.478Z,94329.4
2023-03-07T00:05:18.831Z,94330.4
2023-03-07T00:06:21.362Z,94330.8
2023-03-07T00:07:23.064Z,94322.7
2023-03-07T00:08:25.305Z,94323.8
2023-03-07T00:09:27.850Z,94325.3
2023-03-07T00:10:29.528Z,94319.8
2023-03-07T00:11:32.064Z,94324.6
2023-03-07T00:12:34.284Z,94323.6
2023-03-07T00:13:36.906Z,94326.7
2023-03-07T00:14:39.196Z,94325.9
2023-03-07T00:15:41.451Z,94326.7
2023-03-07T00:16:44.041Z,94330.9
2023-03-07T00:17:45.962Z,94325.1
2023-03-07T00:18:48.562Z,94327
2023-03-07T00:19:50.782Z,94332.2
2023-03-07T00:20:53.014Z,94327.2
2023-03-07T00:21:55.533Z,94324.6
2023-03-07T00:22:58.096Z,94323.2
2023-03-07T00:24:00.607Z,94320.5
2023-03-07T00:25:03.192Z,94319.4
2023-03-07T00:26:05.677Z,94314.8
2023-03-07T00:27:07.954Z,94316.5
2023-03-07T00:28:10.506Z,94317.5
2023-03-07T00:29:12.520Z,94317.8
2023-03-07T00:30:14.759Z,94313.8
2023-03-07T00:31:17.184Z,94313.7
2023-03-07T00:32:19.982Z,94311.4
2023-03-07T00:33:22.041Z,94311.3
2023-03-07T00:34:24.245Z,94312.8
2023-03-07T00:35:25.901Z,94307.6
2023-03-07T00:36:28.381Z,94310.7
2023-03-07T00:37:30.601Z,94307.3
2023-03-07T00:38:32.860Z,94307.1
2023-03-07T00:39:35.123Z,94308.2
2023-03-07T00:40:37.336Z,94308.3
2023-03-07T00:41:39.820Z,94306.1
2023-03-07T00:42:41.745Z,94300.8
2023-03-07T00:43:44.249Z,94299.2
2023-03-07T00:44:46.533Z,94300.4
2023-03-07T00:45:49.270Z,94300.7
2023-03-07T00:46:51.850Z,94299.5
2023-03-07T00:47:54.356Z,94301.8
2023-03-07T00:48:56.601Z,94296.7
2023-03-07T00:49:59.095Z,94300.4
2023-03-07T00:51:01.591Z,94302.9
2023-03-07T00:52:03.825Z,94298.6
2023-03-07T00:53:06.327Z,94303.9
2023-03-07T00:54:08.579Z,94298.7
2023-03-07T00:55:11.087Z,94293.2
2023-03-07T00:56:13.338Z,94290.5
2023-03-07T00:57:15.840Z,94284.8
2023-03-07T00:58:18.101Z,94287.2
2023-03-07T00:59:20.334Z,94286.7
2023-03-07T01:00:22.354Z,94285.9
2023-03-07T01:01:24.986Z,94286.9
2023-03-07T01:02:27.475Z,94286.9
2023-03-07T01:03:29.999Z,94285.8
2023-03-07T01:04:32.446Z,94287.3
2023-03-07T01:05:34.827Z,94283.7
2023-03-07T01:06:37.331Z,94288.1
2023-03-07T01:07:39.836Z,94290
2023-03-07T01:08:42.353Z,94287.7
2023-03-07T01:09:44.890Z,94289.1
2023-03-07T01:10:47.128Z,94285.1
2023-03-07T01:11:49.629Z,94289.4
2023-03-07T01:12:51.606Z,94284.9
2023-03-07T01:13:54.211Z,94284.4
2023-03-07T01:14:56.709Z,94281.8
2023-03-07T01:15:59.325Z,94280.6
2023-03-07T01:17:01.846Z,94277.9
2023-03-07T01:18:04.086Z,94281
2023-03-07T01:19:06.102Z,94279.5
2023-03-07T01:20:08.669Z,94281.2
2023-03-07T01:21:10.881Z,94281.3
2023-03-07T01:22:13.104Z,94277.7
2023-03-07T01:23:15.664Z,94280.5
2023-03-07T01:24:17.640Z,94275.4
2023-03-07T01:25:19.894Z,94276
2023-03-07T01:26:21.570Z,94271.6
2023-03-07T01:27:24.083Z,94266
2023-03-07T01:28:26.576Z,94262
2023-03-07T01:29:28.511Z,94265.3
2023-03-07T01:30:31.050Z,94265.3
2023-03-07T01:31:34.025Z,94262.1
2023-03-07T01:32:36.654Z,94265.2
2023-03-07T01:33:39.248Z,94260.1
2023-03-07T01:34:41.463Z,94262.5
2023-03-07T01:35:44.149Z,94263
2023-03-07T01:36:46.867Z,94259.4
2023-03-07T01:37:49.113Z,94259.3
2023-03-07T01:38:51.611Z,94255.5
2023-03-07T01:39:53.546Z,94260.4
2023-03-07T01:40:56.080Z,94256.7
2023-03-07T01:41:58.598Z,94259
2023-03-07T01:43:00.820Z,94259.3
2023-03-07T01:44:03.060Z,94258.1
2023-03-07T01:45:05.068Z,94257.6
2023-03-07T01:46:07.562Z,94262.5
2023-03-07T01:47:10.352Z,94258.3
2023-03-07T01:48:12.868Z,94264.8
2023-03-07T01:49:14.546Z,94255.9
2023-03-07T01:50:17.095Z,94256.6
2023-03-07T01:51:19.020Z,94257.5
2023-03-07T01:52:21.235Z,94255
2023-03-07T01:53:23.450Z,94255.4
2023-03-07T01:54:25.410Z,94254
2023-03-07T01:55:27.678Z,94253.4
2023-03-07T01:56:30.213Z,94247.2
2023-03-07T01:57:32.754Z,94249.4
2023-03-07T01:58:34.686Z,94247.7
2023-03-07T01:59:37.229Z,94241.7
2023-03-07T02:00:39.716Z,94244.8
2023-03-07T02:01:42.185Z,94243.6
2023-03-07T02:02:44.751Z,94239.2
2023-03-07T02:03:47.377Z,94243.5
2023-03-07T02:04:49.874Z,94244.4
2023-03-07T02:05:52.376Z,94238.7
2023-03-07T02:06:54.595Z,94236
2023-03-07T02:07:56.815Z,94236.4
2023-03-07T02:08:59.033Z,94234.9
2023-03-07T02:10:01.267Z,94237.9
2023-03-07T02:11:03.778Z,94233.4
2023-03-07T02:12:06.039Z,94239.7
2023-03-07T02:13:08.530Z,94234.1
2023-03-07T02:14:10.776Z,94235.7
2023-03-07T02:15:12.687Z,94234.5
2023-03-07T02:16:15.191Z,94236.3
2023-03-07T02:17:17.811Z,94238.4
2023-03-07T02:18:20.402Z,94235.7
2023-03-07T02:19:22.948Z,94232.1
2023-03-07T02:20:25.446Z,94234.8
2023-03-07T02:21:27.975Z,94233.6
2023-03-07T02:22:30.183Z,94237.1
2023-03-07T02:23:32.694Z,94234
2023-03-07T02:24:35.183Z,94233.7
2023-03-07T02:25:37.440Z,94235.4
2023-03-07T02:26:39.696Z,94235.7
2023-03-07T02:27:42.244Z,94236.7
2023-03-07T02:28:44.726Z,94236.6
2023-03-07T02:29:46.919Z,94237
2023-03-07T02:30:49.060Z,94231.5
2023-03-07T02:31:51.006Z,94234.4
2023-03-07T02:32:53.496Z,94234.7
2023-03-07T02:33:56.072Z,94233.6
2023-03-07T02:34:58.528Z,94231.6
2023-03-07T02:36:01.412Z,94234.8
2023-03-07T02:37:03.705Z,94234.1
2023-03-07T02:38:05.958Z,94237.3
2023-03-07T02:39:08.523Z,94234.9
2023-03-07T02:40:10.517Z,94238.3
2023-03-07T02:41:12.477Z,94238.7
2023-03-07T02:42:15.031Z,94237.4
2023-03-07T02:43:17.312Z,94237
2023-03-07T02:44:19.646Z,94236.7
2023-03-07T02:45:21.865Z,94234.9
2023-03-07T02:46:24.703Z,94230.8
2023-03-07T02:47:26.960Z,94237.7
2023-03-07T02:48:29.240Z,94238.8
2023-03-07T02:49:31.598Z,94242.5
2023-03-07T02:50:33.843Z,94237.7
2023-03-07T02:51:36.056Z,94238.8
2023-03-07T02:52:38.268Z,94239.4
2023-03-07T02:53:40.214Z,94240.5
2023-03-07T02:54:42.729Z,94241.2
2023-03-07T02:55:44.931Z,94239.1
2023-03-07T02:56:47.146Z,94240.1
2023-03-07T02:57:49.662Z,94236.3
2023-03-07T02:58:52.229Z,94240.6
2023-03-07T02:59:54.465Z,94239.3
2023-03-07T03:00:56.683Z,94237
2023-03-07T03:01:59.523Z,94240.5
2023-03-07T03:03:01.631Z,94234.5
2023-03-07T03:04:03.849Z,94232.5
2023-03-07T03:05:06.202Z,94232.4
2023-03-07T03:06:08.458Z,94231.6
2023-03-07T03:07:10.667Z,94233.6
2023-03-07T03:08:12.897Z,94229.3
2023-03-07T03:09:15.406Z,94227.9
2023-03-07T03:10:17.621Z,94225.4
2023-03-07T03:11:19.820Z,94228.4
2023-03-07T03:12:22.347Z,94218.9
2023-03-07T03:13:24.272Z,94223.1
2023-03-07T03:14:26.819Z,94223
2023-03-07T03:15:29.042Z,94221
2023-03-07T03:16:31.557Z,94218.8
2023-03-07T03:17:34.169Z,94221.2
2023-03-07T03:18:36.083Z,94219.9
2023-03-07T03:19:38.574Z,94222
2023-03-07T03:20:41.263Z,94220.3
2023-03-07T03:21:43.811Z,94222.6
2023-03-07T03:22:46.044Z,94218.5
2023-03-07T03:23:48.268Z,94220.1
2023-03-07T03:24:50.479Z,94224.2
2023-03-07T03:25:52.702Z,94220.2
2023-03-07T03:26:54.358Z,94218.1
2023-03-07T03:27:56.304Z,94219.3
2023-03-07T03:28:58.801Z,94212.8
2023-03-07T03:30:01.373Z,94211.8
2023-03-07T03:31:03.740Z,94212.8
2023-03-07T03:32:06.245Z,94214.7
2023-03-07T03:33:08.257Z,94216.1
2023-03-07T03:34:10.474Z,94212.6
2023-03-07T03:35:12.701Z,94214.2
2023-03-07T03:36:15.054Z,94212.6
2023-03-07T03:37:17.622Z,94217.6
2023-03-07T03:38:19.836Z,94218.5
2023-03-07T03:39:22.380Z,94213.1
2023-03-07T03:40:24.651Z,94215.4
2023-03-07T03:41:27.149Z,94211.4
2023-03-07T03:42:29.357Z,94205.1
2023-03-07T03:43:31.833Z,94208.1
2023-03-07T03:44:33.765Z,94211.8
2023-03-07T03:45:36.285Z,94208
2023-03-07T03:46:38.786Z,94208.7
2023-03-07T03:47:40.792Z,94209.7
2023-03-07T03:48:43.061Z,94208.4
2023-03-07T03:49:45.276Z,94210.3
2023-03-07T03:50:47.483Z,94209.5
2023-03-07T03:51:49.796Z,94207.9
2023-03-07T03:52:52.326Z,94209
2023-03-07T03:53:54.550Z,94207.7
2023-03-07T03:54:57.128Z,94207.9
2023-03-07T03:55:59.643Z,94206.7
2023-03-07T03:57:02.178Z,94209.7
2023-03-07T03:58:04.617Z,94203.4
2023-03-07T03:59:07.125Z,94206.2
2023-03-07T04:00:09.660Z,94200.4
2023-03-07T04:01:12.278Z,94203.1
2023-03-07T04:02:15.050Z,94201.6
2023-03-07T04:03:17.431Z,94201.6
2023-03-07T04:04:19.644Z,94200.1
2023-03-07T04:05:21.852Z,94199
2023-03-07T04:06:23.798Z,94194.3
2023-03-07T04:07:26.402Z,94198.8
2023-03-07T04:08:28.926Z,94195.7
2023-03-07T04:09:31.150Z,94195.5
2023-03-07T04:10:33.371Z,94190.3
2023-03-07T04:11:35.313Z,94191.2
2023-03-07T04:12:37.827Z,94193
2023-03-07T04:13:40.066Z,94185.8
2023-03-07T04:14:42.561Z,94183.5
2023-03-07T04:15:45.064Z,94182.5
2023-03-07T04:16:47.530Z,94191.4
2023-03-07T04:17:50.160Z,94185.1
2023-03-07T04:18:52.661Z,94191
2023-03-07T04:19:55.171Z,94188.7
2023-03-07T04:20:57.681Z,94180.3
2023-03-07T04:22:00.194Z,94182.6
2023-03-07T04:23:02.734Z,94186.8
2023-03-07T04:24:05.242Z,94186.6
2023-03-07T04:25:07.455Z,94183
2023-03-07T04:26:10.564Z,94182.4
2023-03-07T04:27:12.413Z,94180
2023-03-07T04:28:14.635Z,94179.6
2023-03-07T04:29:17.106Z,94183.7
2023-03-07T04:30:19.596Z,94176.8
2023-03-07T04:31:22.248Z,94179.1
2023-03-07T04:32:24.887Z,94178
2023-03-07T04:33:27.151Z,94179.4
2023-03-07T04:34:30.055Z,94180.1
2023-03-07T04:35:32.976Z,94182
2023-03-07T04:36:35.345Z,94178.5
2023-03-07T04:37:37.898Z,94181.6
2023-03-07T04:38:40.564Z,94178.3
2023-03-07T04:39:43.224Z,94177.5
2023-03-07T04:40:45.817Z,94173.1
2023-03-07T04:41:48.135Z,94177.8
2023-03-07T04:42:50.619Z,94183.5
2023-03-07T04:43:52.584Z,94178.1
2023-03-07T04:44:55.290Z,94173.7
2023-03-07T04:45:58.060Z,94174.1
2023-03-07T04:47:00.725Z,94174.2
2023-03-07T04:48:02.997Z,94178.1
2023-03-07T04:49:05.523Z,94176.5
2023-03-07T04:50:08.085Z,94173.8
2023-03-07T04:51:10.609Z,94172.7
2023-03-07T04:52:13.110Z,94174.9
2023-03-07T04:53:15.627Z,94171.8
2023-03-07T04:54:18.213Z,94171.8
2023-03-07T04:55:20.719Z,94173.2
2023-03-07T04:56:23.214Z,94177.9
2023-03-07T04:57:25.709Z,94172.5
2023-03-07T04:58:28.223Z,94176.5
2023-03-07T04:59:30.194Z,94172.1
2023-03-07T05:00:32.684Z,94175.7
2023-03-07T05:01:35.446Z,94170.6
2023-03-07T05:02:37.466Z,94173.9
2023-03-07T05:03:39.978Z,94169
2023-03-07T05:04:42.616Z,94174.9
2023-03-07T05:05:45.099Z,94174.2
2023-03-07T05:06:47.301Z,94175.7
2023-03-07T05:07:49.519Z,94177.2
2023-03-07T05:08:52.028Z,94184.3
2023-03-07T05:09:54.357Z,94182.2
2023-03-07T05:10:56.893Z,94180.9
2023-03-07T05:11:58.832Z,94180.6
2023-03-07T05:13:01.364Z,94183.2
2023-03-07T05:14:03.846Z,94182.2
2023-03-07T05:15:06.172Z,94182.5
2023-03-07T05:16:08.605Z,94182
2023-03-07T05:17:10.979Z,94177.9
2023-03-07T05:18:13.196Z,94179.2
2023-03-07T05:19:16.238Z,94181.8
2023-03-07T05:20:18.731Z,94183.2
2023-03-07T05:21:21.254Z,94182.5
2023-03-07T05:22:23.744Z,94174.3
2023-03-07T05:23:26.255Z,94181.7
2023-03-07T05:24:28.751Z,94180.5
2023-03-07T05:25:31.113Z,94183
2023-03-07T05:26:33.644Z,94179
2023-03-07T05:27:35.848Z,94182.4
2023-03-07T05:28:38.379Z,94182.3
2023-03-07T05:29:40.656Z,94181.3
2023-03-07T05:30:43.283Z,94176.7
2023-03-07T05:31:45.537Z,94181.2
2023-03-07T05:32:47.770Z,94181.7
2023-03-07T05:33:49.998Z,94178.9
2023-03-07T05:34:52.497Z,94184.4
2023-03-07T05:35:54.886Z,94185.9
2023-03-07T05:36:57.276Z,94181
2023-03-07T05:37:59.254Z,94176.4
2023-03-07T05:39:01.478Z,94177.3
2023-03-07T05:40:04.012Z,94178.4
2023-03-07T05:41:06.624Z,94179.7
2023-03-07T05:42:09.185Z,94181.5
2023-03-07T05:43:11.411Z,94176.5
2023-03-07T05:44:13.386Z,94183
2023-03-07T05:45:15.912Z,94182.2
2023-03-07T05:46:18.325Z,94184.6
2023-03-07T05:47:20.652Z,94176
2023-03-07T05:48:23.239Z,94179.5
2023-03-07T05:49:25.438Z,94177.5
2023-03-07T05:50:28.046Z,94177.9
2023-03-07T05:51:30.540Z,94175.5
2023-03-07T05:52:32.753Z,94175.2
2023-03-07T05:53:35.008Z,94176.5
2023-03-07T05:54:37.293Z,94174.9
2023-03-07T05:55:39.816Z,94174.6
2023-03-07T05:56:42.385Z,94171
2023-03-07T05:57:45.017Z,94167.4
2023-03-07T05:58:47.515Z,94172.2
2023-03-07T05:59:49.910Z,94168.3
2023-03-07T06:00:52.411Z,94166.9
2023-03-07T06:01:54.924Z,94166.9
2023-03-07T06:02:57.705Z,94172.3
2023-03-07T06:04:00.447Z,94169.4
2023-03-07T06:05:03.094Z,94173.7
2023-03-07T06:06:05.614Z,94172.1
2023-03-07T06:07:08.113Z,94167.4
2023-03-07T06:08:10.322Z,94174.7
2023-03-07T06:09:12.805Z,94169.1
2023-03-07T06:10:15.314Z,94173.4
2023-03-07T06:11:17.828Z,94170.5
2023-03-07T06:12:20.454Z,94171.2
2023-03-07T06:13:22.893Z,94169.2
2023-03-07T06:14:25.398Z,94168.1
2023-03-07T06:15:27.896Z,94167.6
2023-03-07T06:16:30.415Z,94164.2
2023-03-07T06:17:32.927Z,94167.4
2023-03-07T06:18:35.425Z,94164.8
2023-03-07T06:19:37.903Z,94166.6
2023-03-07T06:20:40.138Z,94169.2
2023-03-07T06:21:42.676Z,94170.2
2023-03-07T06:22:44.911Z,94172.1
2023-03-07T06:23:47.422Z,94167.6
2023-03-07T06:24:49.963Z,94171.8
2023-03-07T06:25:52.171Z,94170.2
2023-03-07T06:26:54.388Z,94169
2023-03-07T06:27:57.051Z,94172.9
2023-03-07T06:28:59.334Z,94174.5
2023-03-07T06:30:01.610Z,94168.2
2023-03-07T06:31:04.280Z,94172.8
2023-03-07T06:32:07.018Z,94176.1
2023-03-07T06:33:09.786Z,94174.7
2023-03-07T06:34:12.299Z,94174.4
2023-03-07T06:35:14.821Z,94177.4
2023-03-07T06:36:17.100Z,94179.4
2023-03-07T06:37:19.355Z,94173.8
2023-03-07T06:38:21.907Z,94172.1
2023-03-07T06:39:23.905Z,94175
2023-03-07T06:40:26.515Z,94173.1
2023-03-07T06:41:28.493Z,94173.4
2023-03-07T06:42:30.458Z,94172.4
2023-03-07T06:43:32.791Z,94175
2023-03-07T06:44:35.357Z,94170.7
2023-03-07T06:45:37.481Z,94171.6
2023-03-07T06:46:39.908Z,94173.4
2023-03-07T06:47:42.431Z,94174.3
2023-03-07T06:48:44.637Z,94170.5
2023-03-07T06:49:47.197Z,94170
2023-03-07T06:50:49.690Z,94172.1
2023-03-07T06:51:52.402Z,94175.4
2023-03-07T06:52:54.775Z,94175
2023-03-07T06:53:57.292Z,94176.4
2023-03-07T06:54:59.835Z,94175.3
2023-03-07T06:56:01.823Z,94177
2023-03-07T06:57:04.331Z,94174.9
2023-03-07T06:58:06.872Z,94177
2023-03-07T06:59:09.442Z,94177
2023-03-07T07:00:11.957Z,94174.5
2023-03-07T07:01:14.495Z,94182.1
2023-03-07T07:02:17.088Z,94182.5
2023-03-07T07:03:20.324Z,94176.1
2023-03-07T07:04:22.998Z,94177.7
2023-03-07T07:05:24.961Z,94179.9
2023-03-07T07:06:26.967Z,94176.6
2023-03-07T07:07:29.495Z,94179.3
2023-03-07T07:08:32.085Z,94182.8
2023-03-07T07:09:34.325Z,94179.4
2023-03-07T07:10:36.826Z,94180.9
2023-03-07T07:11:39.307Z,94182
2023-03-07T07:12:41.259Z,94176.8
2023-03-07T07:13:43.485Z,94176.1
2023-03-07T07:14:46.146Z,94170.2
2023-03-07T07:15:48.705Z,94174.6
2023-03-07T07:16:51.483Z,94175.3
2023-03-07T07:17:53.888Z,94171.3
2023-03-07T07:18:56.409Z,94168.9
2023-03-07T07:19:58.692Z,94170.4
2023-03-07T07:21:01.219Z,94174.7
2023-03-07T07:22:03.739Z,94168.9
2023-03-07T07:23:06.012Z,94171.8
2023-03-07T07:24:08.297Z,94172
2023-03-07T07:25:10.808Z,94168.7
2023-03-07T07:26:13.096Z,94172.3
2023-03-07T07:27:15.632Z,94169.2
2023-03-07T07:28:17.897Z,94169.2
2023-03-07T07:29:20.410Z,94164.8
2023-03-07T07:30:23.115Z,94166.6
2023-03-07T07:31:26.425Z,94163.5
2023-03-07T07:32:29.558Z,94160.1
2023-03-07T07:33:32.899Z,94155.1
2023-03-07T07:34:34.854Z,94163.4
2023-03-07T07:35:37.336Z,94156
2023-03-07T07:36:39.899Z,94152.6
2023-03-07T07:37:42.492Z,94151.6
2023-03-07T07:38:44.745Z,94151.6
2023-03-07T07:39:46.801Z,94154.9
2023-03-07T07:40:49.317Z,94145.1
2023-03-07T07:41:51.562Z,94147.9
2023-03-07T07:42:54.045Z,94143.4
2023-03-07T07:43:56.687Z,94138.7
2023-03-07T07:44:59.184Z,94137.5
2023-03-07T07:46:02.142Z,94143.4
2023-03-07T07:47:04.509Z,94140.5
2023-03-07T07:48:06.464Z,94145.3
2023-03-07T07:49:08.979Z,94136.9
2023-03-07T07:50:11.221Z,94146.9
2023-03-07T07:51:13.719Z,94144.2
2023-03-07T07:52:16.285Z,94145.1
2023-03-07T07:53:18.520Z,94140.2
2023-03-07T07:54:21.031Z,94145.6
2023-03-07T07:55:23.550Z,94148.5
2023-03-07T07:56:26.105Z,94143.2
2023-03-07T07:57:28.094Z,94139.2
2023-03-07T07:58:30.334Z,94150.1
2023-03-07T07:59:32.837Z,94139.9
2023-03-07T08:00:35.058Z,94145.5
2023-03-07T08:01:39.756Z,94154.4
2023-03-07T08:02:42.741Z,94146.3
2023-03-07T08:03:45.309Z,94146.4
2023-03-07T08:04:47.908Z,94141.8
2023-03-07T08:05:49.907Z,94130.3
2023-03-07T08:06:52.440Z,94149.6
2023-03-07T08:07:54.924Z,94138.8
2023-03-07T08:08:57.190Z,94144
2023-03-07T08:09:59.145Z,94147.2
2023-03-07T08:11:01.699Z,94151.8
2023-03-07T08:12:03.406Z,94137.5
2023-03-07T08:13:05.936Z,94150.2
2023-03-07T08:14:08.448Z,94137.3
2023-03-07T08:15:10.679Z,94140.3
2023-03-07T08:16:13.101Z,94133.7
2023-03-07T08:17:15.806Z,94131.4
2023-03-07T08:18:18.305Z,94134.6
2023-03-07T08:19:20.534Z,94137.2
2023-03-07T08:20:22.300Z,94134.5
2023-03-07T08:21:24.569Z,94134.6
2023-03-07T08:22:26.807Z,94133.4
2023-03-07T08:23:29.075Z,94133.3
2023-03-07T08:25:36.301Z,94130.4
2023-03-07T08:26:38.850Z,94133.5
2023-03-07T08:27:41.088Z,94132.4
2023-03-07T08:28:43.616Z,94130.4
2023-03-07T08:29:45.888Z,94127.4
2023-03-07T08:30:48.230Z,94126.2
2023-03-07T08:31:50.805Z,94127.8
2023-03-07T08:32:53.136Z,94128.3
2023-03-07T08:33:55.902Z,94128.5
2023-03-07T08:34:58.230Z,94131.5
2023-03-07T08:36:00.727Z,94123.2
2023-03-07T08:37:03.318Z,94127
2023-03-07T08:38:05.833Z,94128.7
2023-03-07T08:39:08.373Z,94125.1
2023-03-07T08:40:10.366Z,94127.2
2023-03-07T08:41:12.879Z,94127.4
2023-03-07T08:42:15.023Z,94124.4
2023-03-07T08:43:17.588Z,94121.4
2023-03-07T08:44:20.207Z,94122.7
2023-03-07T08:45:24.402Z,94123.1
2023-03-07T08:46:27.286Z,94127.5
2023-03-07T08:47:29.846Z,94118.8
2023-03-07T08:48:32.495Z,94118.8
2023-03-07T08:49:34.466Z,94129.1
2023-03-07T08:50:36.980Z,94126.5
2023-03-07T08:51:39.481Z,94121.5
2023-03-07T08:52:41.974Z,94120.4
2023-03-07T08:53:44.531Z,94125.4
2023-03-07T08:54:47.062Z,94124.3
2023-03-07T08:55:49.643Z,94117.9
2023-03-07T08:56:51.898Z,94128.8
2023-03-07T08:57:54.192Z,94116.2
2023-03-07T08:58:56.741Z,94114
2023-03-07T08:59:59.289Z,94120.1
2023-03-07T09:01:01.596Z,94117.4
2023-03-07T09:02:03.884Z,94118.7
2023-03-07T09:03:06.522Z,94117.3
2023-03-07T09:04:09.174Z,94126.5
2023-03-07T09:05:11.842Z,94123
2023-03-07T09:06:14.405Z,94119.7
2023-03-07T09:07:16.941Z,94125.1
2023-03-07T09:08:19.167Z,94121.3
2023-03-07T09:09:21.689Z,94116.7
2023-03-07T09:10:23.783Z,94113.3
2023-03-07T09:11:26.356Z,94116.5
2023-03-07T09:12:28.344Z,94115.2
2023-03-07T09:13:33.009Z,94116.4
2023-03-07T09:14:37.627Z,94107.9
2023-03-07T09:15:40.132Z,94110.7
2023-03-07T09:16:43.001Z,94112.3
2023-03-07T09:17:45.169Z,94113.1
2023-03-07T09:18:47.727Z,94112.1
2023-03-07T09:19:50.114Z,94114.4
2023-03-07T09:20:52.728Z,94111.1
2023-03-07T09:21:54.688Z,94109.7
2023-03-07T09:22:57.235Z,94113.3
2023-03-07T09:23:59.769Z,94113.5
2023-03-07T09:25:02.307Z,94107.4
2023-03-07T09:26:04.557Z,94114
2023-03-07T09:27:06.788Z,94110.1
2023-03-07T09:28:09.028Z,94116
2023-03-07T09:29:11.317Z,94107.8
2023-03-07T09:30:13.846Z,94106
2023-03-07T09:31:16.349Z,94102.9
2023-03-07T09:32:19.138Z,94109.7
2023-03-07T09:33:21.430Z,94103.1
2023-03-07T09:34:23.922Z,94092.6
2023-03-07T09:35:26.329Z,94098.8
2023-03-07T09:36:28.871Z,94087.8
2023-03-07T09:37:30.852Z,94091.6
2023-03-07T09:38:33.441Z,94096
2023-03-07T09:39:36.135Z,94096.1
2023-03-07T09:40:38.415Z,94083.2
2023-03-07T09:41:40.978Z,94081.6
2023-03-07T09:42:43.483Z,94079.4
2023-03-07T09:43:45.758Z,94081.5
2023-03-07T09:44:48.027Z,94081
2023-03-07T09:45:50.658Z,94086
2023-03-07T09:46:53.175Z,94092
2023-03-07T09:47:55.391Z,94096
2023-03-07T09:48:57.638Z,94079.5
2023-03-07T09:49:59.631Z,94089.1
2023-03-07T09:52:10.297Z,94071.4
2023-03-07T09:53:12.642Z,94080.7
2023-03-07T09:54:15.261Z,94074.4
2023-03-07T09:55:17.514Z,94077.1
2023-03-07T09:56:20.116Z,94068.5
2023-03-07T09:57:22.376Z,94080
2023-03-07T09:58:24.902Z,94075
2023-03-07T09:59:27.202Z,94076.5
2023-03-07T10:00:29.777Z,94060.8
2023-03-07T10:01:32.040Z,94063.5
2023-03-07T10:02:34.043Z,94068.7
2023-03-07T10:03:36.194Z,94067.1
2023-03-07T10:04:39.154Z,94064.7
2023-03-07T10:05:41.706Z,94051.1
2023-03-07T10:06:44.255Z,94048.2
2023-03-07T10:07:46.665Z,94049.8
2023-03-07T10:08:49.343Z,94045.8
2023-03-07T10:09:51.826Z,94055.6
2023-03-07T10:10:54.073Z,94052.5
2023-03-07T10:11:56.415Z,94049
2023-03-07T10:12:58.740Z,94045.8
2023-03-07T10:14:01.286Z,94044.7
2023-03-07T10:15:03.823Z,94050.6
2023-03-07T10:16:06.487Z,94052.3
2023-03-07T10:17:09.204Z,94042.4
2023-03-07T10:18:11.929Z,94052.8
2023-03-07T10:19:14.832Z,94044.3
2023-03-07T10:20:17.559Z,94040.3
2023-03-07T10:21:20.317Z,94043.5
2023-03-07T10:22:22.296Z,94041.7
2023-03-07T10:23:24.953Z,94048.8
2023-03-07T10:24:27.309Z,94052.6
2023-03-07T10:25:29.615Z,94036.4
2023-03-07T10:26:31.841Z,94038
2023-03-07T10:27:34.377Z,94036.7
2023-03-07T10:28:36.607Z,94036.4
2023-03-07T10:29:38.573Z,94022.5
2023-03-07T10:30:40.882Z,94027.7
2023-03-07T10:31:43.705Z,94029.7
2023-03-07T10:32:46.615Z,94027.8
2023-03-07T10:33:48.935Z,94028.3
2023-03-07T10:34:51.479Z,94021.7
2023-03-07T10:35:53.920Z,94017.7
2023-03-07T10:38:01.224Z,94018
2023-03-07T10:39:03.826Z,94013.3
2023-03-07T10:40:06.981Z,94012.9
2023-03-07T10:41:09.790Z,94015.4
2023-03-07T10:42:11.826Z,94012
2023-03-07T10:43:14.406Z,94018.1
2023-03-07T10:44:17.387Z,94011.3
2023-03-07T10:45:20.142Z,94011.3
2023-03-07T10:47:27.427Z,94005.7
2023-03-07T10:48:30.227Z,94005.6
2023-03-07T10:49:33.283Z,94001.7
2023-03-07T10:50:36.171Z,94002.6
2023-03-07T10:51:38.462Z,94000.4
2023-03-07T10:52:41.039Z,93996.1
2023-03-07T10:53:43.588Z,93997
2023-03-07T10:54:46.187Z,93993.6
2023-03-07T10:55:48.996Z,93985.3
2023-03-07T10:56:51.229Z,93986.2
2023-03-07T10:57:53.784Z,93983.8
2023-03-07T10:58:57.486Z,93980.4
2023-03-07T11:00:00.036Z,93977.2
2023-03-07T11:01:02.881Z,93981.8
2023-03-07T11:02:05.585Z,93974.6
2023-03-07T11:03:07.897Z,93970.1
2023-03-07T11:04:10.171Z,93973.6
2023-03-07T11:05:12.513Z,93970.8
2023-03-07T11:06:14.742Z,93968.2
2023-03-07T11:07:17.244Z,93971.9
2023-03-07T11:08:19.791Z,93966.9
2023-03-07T11:09:22.297Z,93967
2023-03-07T11:10:24.601Z,93968.6
2023-03-07T11:11:27.154Z,93965
2023-03-07T11:12:29.738Z,93958
2023-03-07T11:13:32.259Z,93957.5
2023-03-07T11:14:34.801Z,93964.4
2023-03-07T11:15:37.548Z,93957.7
2023-03-07T11:16:40.186Z,93949.3
2023-03-07T11:17:42.814Z,93946
2023-03-07T11:18:45.102Z,93957.7
2023-03-07T11:19:47.593Z,93958.9
2023-03-07T11:20:49.845Z,93956.7
2023-03-07T11:21:52.111Z,93955.1
2023-03-07T11:22:54.639Z,93950.2
2023-03-07T11:23:56.966Z,93949.4
2023-03-07T11:24:59.561Z,93948.1
2023-03-07T11:26:02.173Z,93946.3
2023-03-07T11:27:04.740Z,93940.4
2023-03-07T11:28:07.241Z,93932.7
2023-03-07T11:29:09.459Z,93927.1
2023-03-07T11:30:12.026Z,93925.4
2023-03-07T11:31:14.852Z,93927.5
2023-03-07T11:32:17.718Z,93928.1
2023-03-07T11:33:20.308Z,93924.8
2023-03-07T11:34:22.570Z,93925.8
2023-03-07T11:35:25.074Z,93924.9
2023-03-07T11:36:27.579Z,93923.7
2023-03-07T11:37:29.866Z,93923.6
2023-03-07T11:38:32.368Z,93926.4
2023-03-07T11:39:34.905Z,93921.1
2023-03-07T11:40:37.146Z,93919.8
2023-03-07T11:41:39.779Z,93921.4
2023-03-07T11:42:42.335Z,93918
2023-03-07T11:43:44.839Z,93921.9
2023-03-07T11:44:47.339Z,93915.9
2023-03-07T11:45:49.587Z,93925.3
2023-03-07T11:46:52.351Z,93919.3
2023-03-07T11:47:54.687Z,93921.5
2023-03-07T11:48:56.906Z,93922.3
2023-03-07T11:49:59.492Z,93922.8
2023-03-07T11:51:01.757Z,93918.5
2023-03-07T11:52:04.257Z,93916
2023-03-07T11:53:06.486Z,93909.5
2023-03-07T11:54:09.260Z,93912.4
2023-03-07T11:55:11.795Z,93904.2
2023-03-07T11:56:13.787Z,93902.4
2023-03-07T11:57:16.364Z,93901.4
2023-03-07T11:58:18.634Z,93894.7
2023-03-07T11:59:20.353Z,93896.3
2023-03-07T12:00:22.634Z,93895.1
2023-03-07T12:01:24.870Z,93895.2
2023-03-07T12:02:27.699Z,93891.4
2023-03-07T12:03:29.744Z,93888.8
2023-03-07T12:04:32.243Z,93896.8
2023-03-07T12:05:35.091Z,93896.2
2023-03-07T12:06:37.124Z,93893.2
2023-03-07T12:07:39.385Z,93888.3
2023-03-07T12:08:41.615Z,93890.1
2023-03-07T12:09:43.862Z,93886
2023-03-07T12:10:46.393Z,93881.9
2023-03-07T12:11:48.930Z,93877.5
2023-03-07T12:12:51.327Z,93881.2
2023-03-07T12:13:53.848Z,93874.6
2023-03-07T12:14:56.085Z,93875.5
2023-03-07T12:15:58.487Z,93875.9
2023-03-07T12:17:01.109Z,93879.8
2023-03-07T12:18:03.329Z,93873.5
2023-03-07T12:19:05.828Z,93867.8
2023-03-07T12:20:08.397Z,93869.9
2023-03-07T12:21:10.922Z,93870.1
2023-03-07T12:22:13.438Z,93867.3
2023-03-07T12:23:15.671Z,93855.7
2023-03-07T12:24:18.219Z,93860.3
2023-03-07T12:25:20.533Z,93856.6
2023-03-07T12:26:23.055Z,93857.5
2023-03-07T12:28:30.656Z,93841.5
2023-03-07T12:29:33.192Z,93845
2023-03-07T12:30:35.768Z,93839.7
2023-03-07T12:31:38.850Z,93843.2
2023-03-07T12:32:42.431Z,93836.8
2023-03-07T12:33:44.749Z,93836.4
2023-03-07T12:34:46.975Z,93841.1
2023-03-07T12:35:49.591Z,93846.9
2023-03-07T12:36:52.201Z,93849.7
2023-03-07T12:37:54.436Z,93846.5
2023-03-07T12:38:56.702Z,93851.9
2023-03-07T12:39:59.235Z,93859.2
2023-03-07T12:41:01.770Z,93852.4
2023-03-07T12:42:04.016Z,93849.4
2023-03-07T12:43:06.574Z,93849.4
2023-03-07T12:44:08.905Z,93846.9
2023-03-07T12:45:11.603Z,93847.2